Benvolgut visitant, si us plau, ingressa Recuperar contrasenya
AVAMET paisatges
Union Alcoyana

Inforatge Dénia Madrigueres

Dades diàries. Acumulats / Últims 30 dies disponibles

Data Temperatura (°C) Humitat rel. (%) Pressió rel. (hPa) Vent (km/h) Precipitació
Mínima Mitjana Màxima Amplitud
tèrmica
Mínima Mitjana Màxima Mínima Mitjana Màxima Predom. Mitjana Ràfega
màxima
Total
(mm)
Índex-n
Mínima Mitjana Màxima Mínima Mitjana Màxima n
0 a 1
P0 max
mm 5'
Dades mensuals acumulades fins l'últim dia disponible
05/2022 12,8 15,8 20,5 20,6 17,0 25,5 34,9 22,1 0 70 97 1.006 1.018 1.025   5,3 53,1 22,0
Dades anuals acumulades fins l'últim dia disponible
2022 2,7 11,1 20,5 14,9 10,9 18,9 34,9 32,2 0 73 98 998 1.020 1.035   5,6 53,1 361,6
Últims 30 dies disponibles
26-05-2022 13,1     20,1     25,6 12,5 42 59 78 1.020 1.022 1.024 SW 5,1 29,0 0,0
25-05-2022 14,9     18,1     20,9 6,0 52 69 89 1.012 1.017 1.023 NNW 9,0 41,8 1,4
24-05-2022 18,9     22,4     28,1 9,2 46 81 93 1.006 1.008 1.012 NNW 6,8 53,1 0,2
23-05-2022 20,5     26,6     31,6 11,1 34 52 91 1.006 1.008 1.009 WNW 8,0 30,6 0,0
22-05-2022 17,2     25,2     34,9 17,7 22 58 86 1.007 1.012 1.018 E 3,1 30,6 0,0
21-05-2022 17,5     22,6     26,7 9,2 52 72 87 1.018 1.021 1.024 E 3,2 24,1 0,0
20-05-2022 19,3     22,2     25,3 6,0 69 81 92 1.023 1.024 1.025 NNW 4,0 22,5 0,0
19-05-2022 19,1     21,8     24,5 5,4 73 84 92 1.019 1.021 1.024 NNW 3,2 20,9 0,0
18-05-2022 18,3     23,2     29,8 11,5 29 73 94 1.017 1.018 1.020 E 3,9 22,5 0,0
17-05-2022 18,6     23,8     32,4 13,8 0 72 95 1.016 1.019 1.020 WNW 4,0 25,7 0,0
16-05-2022 18,1     23,0     29,9 11,8 34 70 94 1.017 1.018 1.021 E 3,5 25,7 0,0
15-05-2022 16,2     21,2     27,1 10,9 27 74 92 1.015 1.017 1.018 NE 3,9 24,1 0,0
14-05-2022 15,9     20,8     26,6 10,7 0 70 95 1.016 1.019 1.021 E 5,0 37,0 0,0
13-05-2022 15,1     19,4     23,3 8,2 55 79 94 1.020 1.021 1.022 E 3,9 29,0 0,2
12-05-2022 13,9     18,3     21,4 7,5 49 77 92 1.021 1.021 1.023 N 3,7 24,1 0,0
11-05-2022 14,1     21,3     26,9 12,8 34 53 85 1.019 1.020 1.022 S 7,9 46,7 0,0
10-05-2022 13,9     20,7     26,7 12,8 39 59 85 1.021 1.023 1.024 S 5,1 30,6 0,0
09-05-2022 14,8     19,8     25,2 10,4 31 66 90 1.021 1.022 1.023 E 5,5 38,6 0,2
08-05-2022 13,2     20,6     26,7 13,5 32 55 84 1.017 1.019 1.021 S 6,0 35,4 0,0
07-05-2022 13,7     19,4     24,8 11,1 39 60 89 1.018 1.020 1.021 E 4,7 25,7 0,0
06-05-2022 12,8     18,6     22,2 9,4 42 58 84 1.019 1.020 1.022 E 4,3 24,1 0,0
05-05-2022 14,6     17,9     22,0 7,4 39 67 89 1.017 1.019 1.022 NNW 8,0 30,6 0,0
04-05-2022 13,6     15,3     17,0 3,4 86 92 97 1.013 1.016 1.018 NE 8,5 33,8 17,0 0,42 1,10
03-05-2022 14,4     16,3     19,1 4,7 73 86 93 1.009 1.011 1.015 WNW 7,9 33,8 0,2
02-05-2022 13,6     16,6     19,4 5,8 77 88 94 1.011 1.013 1.016 WNW 3,5 20,9 2,8 0,15 1,00
01-05-2022 15,4     19,6     24,1 8,7 44 66 89 1.015 1.017 1.019 E 4,8 32,2 0,0
30-04-2022 12,0     19,8     26,5 14,5 33 55 89 1.018 1.021 1.024 SSO 4,8 37,0 0,0
29-04-2022 13,4     16,7     19,6 6,2 71 81 91 1.022 1.024 1.025 NNW 5,3 22,5 0,0
28-04-2022 13,2     14,6     16,0 2,8 88 94 97 1.018 1.020 1.023 NNW 3,1 20,9 9,0 0,25 0,40
27-04-2022 13,2     15,4     19,4 6,2 57 83 92 1.015 1.017 1.019 E 1,4 20,9 6,0 0,68 0,80
Últims 13 mesos disponibles
04/2022 5,2 12,1 15,5 15,9 11,8 19,8 27,9 22,7 42 67 94 1.003 1.014 1.024 WNW 7,0 51,5 81,6
03/2022 7,9 11,1 14,4 13,6 10,9 16,3 22,0 14,1 61 84 96 1.003 1.018 1.025 E 8,0 53,1 248,2
02/2022 5,9 9,4 12,6 13,6 15,0 18,0 23,9 18,0 39 71 91 1.017 1.024 1.032 E 3,9 45,1 2,2
01/2022 2,7 7,1 14,3 11,1 11,6 15,4 23,6 20,9 43 74 91 1.013 1.026 1.033 WNW 3,6 53,1 7,6
12/2021 6,4 11,3 18,1 14,8 12,7 18,4 23,7 17,3 45 67 90 1.009 1.020 1.029 WNW 5,6 51,5 0,2
11/2021 7,3 11,7 20,6 14,8 13,4 18,1 26,4 19,1 46 68 89 1.005 1.015 1.027 WNW 6,1 53,1 182,4
10/2021 12,4 16,3 20,1 20,5 20,9 24,4 29,3 16,9 48 75 95 1.010 1.019 1.026 E 3,9 56,3 173,0
09/2021 16,9 21,1 24,5 25,0 21,8 29,0 34,1 17,2 55 73 91 1.013 1.017 1.024 E 5,7 53,1 110,4
08/2021 20,4 23,5 26,8 27,2 26,7 31,6 42,1 21,7 51 72 85 1.007 1.015 1.020 E 5,7 56,3 1,8
07/2021 19,2 22,3 25,3 26,9 25,9 32,0 40,3 21,1 49 67 81 1.009 1.015 1.022 E 6,5 46,7 2,0
06/2021 17,7 19,9 22,1 23,6 22,1 27,4 32,6 14,9 49 73 89 1.010 1.017 1.022 E 5,0 45,1 14,6
05/2021 13,2 16,3 23,7 20,4 17,5 25,1 35,1 21,9 36 67 92 1.009 1.017 1.023 WNW 6,5 46,7 56,2
04/2021 7,5 11,9 15,0 15,3 13,9 18,8 25,4 17,9 62 78 91 1.006 1.016 1.025 E 5,0 40,2 59,8
Tots els anys disponibles
2021 1,4 15,4 26,8 19,1 9,1 23,1 42,1 40,7 36 71 95 1.003 1.017 1.035 E 5,6 82,1 836,0
2020 2,5 15,3 26,0 19,4 11,8 23,7 41,4 38,9 38 70 96 998 1.018 1.033 WNW 5,1 75,6 631,2
2019 1,9 15,0 27,1 19,2 12,1 23,5 39,8 37,9 28 67 96 996 1.017 1.033 S 5,7 70,9 785,6
2018 2,9 15,2 27,2 19,1 8,3 23,2 37,9 35,0 34 67 94 993 1.016 1.034 S 5,5 66,7 612,4
2017 3,3 15,8 27,2 20,0 12,4 24,3 37,1 33,8 30 69 94 998 1.018 1.035 S 3,2 61,1 453,0
Temperatura (°C)
Humitat relativa (%)
Velocitat del vent i ràfega màxima (km/h)
Direcció del vent (°)
Pressió (hPa)
Precipitació (mm)
Nota sobre les dades: s'avisa a l'usuari de la provisionalitat i no oficialitat d'aquestes dades
Logo AVAMET blanc
Web allotjada a Sollutia
Llicència de Creative CommonsLa web d'AVAMET i els seus continguts estan subjectes a una llicència de
Reconeixement - No Comercial - Compartir igual
Avís legal - Política de privacitat - Política de cookies
NOVES ESTACIONS:  l'Alqueria d'Asnar (Ajuntament/Soci), les Alqueries - Cap del Terme (Soci), Vila-real - les Solaes (Soci), Calles - Parque de Emergencias (Soci), Bocairent - els Corrals (Soci), Sella - el Xarquer, Xàbia - Far del Cap de la Nau (Soci), Benicàssim - Quadre de Santiago (Soci), Sant Mateu - IES Maestrat (Soci)  / el Palomar (Ajuntament/Soci) / Atzeneta del Maestrat - Pla de Meanes (Ajuntament/Soci) / Onda - Sant Gil (Soci) / Onda - Ràtils CR Cota 220 (Soci) / la Vila Joiosa (Ajuntament/Soci) / Miramar - Platja (Ajuntament/Soci) / Massanassa - IES Massanassa (Soci) / Culla - Pla de les Vinyes (Ajuntament/Soci) - - -